sensor_id;sensor_type;location;lat;lon;timestamp;P1;durP1;ratioP1;P2;durP2;ratioP2
10110;SDS011;5095;49.796;9.934;2023-06-22T00:01:55;11.13;;;7.30;;
10110;SDS011;5095;49.796;9.934;2023-06-22T00:04:21;11.03;;;8.03;;
10110;SDS011;5095;49.796;9.934;2023-06-22T00:06:47;9.83;;;7.20;;
10110;SDS011;5095;49.796;9.934;2023-06-22T00:09:13;8.57;;;7.30;;
10110;SDS011;5095;49.796;9.934;2023-06-22T00:11:39;10.63;;;7.83;;
10110;SDS011;5095;49.796;9.934;2023-06-22T00:14:05;11.43;;;8.07;;
10110;SDS011;5095;49.796;9.934;2023-06-22T00:16:31;11.47;;;7.70;;
10110;SDS011;5095;49.796;9.934;2023-06-22T00:18:58;10.10;;;7.83;;
10110;SDS011;5095;49.796;9.934;2023-06-22T00:21:25;9.57;;;7.43;;
10110;SDS011;5095;49.796;9.934;2023-06-22T00:23:51;8.40;;;7.50;;
10110;SDS011;5095;49.796;9.934;2023-06-22T00:26:18;8.60;;;7.50;;
10110;SDS011;5095;49.796;9.934;2023-06-22T00:28:44;11.53;;;8.13;;
10110;SDS011;5095;49.796;9.934;2023-06-22T00:31:10;8.20;;;7.07;;
10110;SDS011;5095;49.796;9.934;2023-06-22T00:33:36;9.57;;;7.57;;
10110;SDS011;5095;49.796;9.934;2023-06-22T00:36:02;11.40;;;8.10;;
10110;SDS011;5095;49.796;9.934;2023-06-22T00:38:28;9.97;;;7.33;;
10110;SDS011;5095;49.796;9.934;2023-06-22T00:40:54;9.82;;;7.50;;
10110;SDS011;5095;49.796;9.934;2023-06-22T00:43:20;11.73;;;8.10;;
10110;SDS011;5095;49.796;9.934;2023-06-22T00:45:46;9.75;;;7.70;;
10110;SDS011;5095;49.796;9.934;2023-06-22T00:48:13;8.40;;;7.50;;
10110;SDS011;5095;49.796;9.934;2023-06-22T00:50:39;11.70;;;8.40;;
10110;SDS011;5095;49.796;9.934;2023-06-22T00:53:06;12.83;;;9.07;;
10110;SDS011;5095;49.796;9.934;2023-06-22T00:55:33;9.73;;;8.30;;
10110;SDS011;5095;49.796;9.934;2023-06-22T00:58:02;10.37;;;8.60;;
10110;SDS011;5095;49.796;9.934;2023-06-22T01:00:30;10.80;;;8.40;;
10110;SDS011;5095;49.796;9.934;2023-06-22T01:02:57;9.38;;;7.95;;
10110;SDS011;5095;49.796;9.934;2023-06-22T01:05:23;11.93;;;7.93;;
10110;SDS011;5095;49.796;9.934;2023-06-22T01:12:52;11.65;;;8.73;;
10110;SDS011;5095;49.796;9.934;2023-06-22T01:15:33;11.70;;;8.90;;
10110;SDS011;5095;49.796;9.934;2023-06-22T01:18:01;10.20;;;8.80;;
10110;SDS011;5095;49.796;9.934;2023-06-22T01:20:29;12.77;;;9.57;;
10110;SDS011;5095;49.796;9.934;2023-06-22T01:25:45;13.13;;;9.37;;
10110;SDS011;5095;49.796;9.934;2023-06-22T01:30:45;16.43;;;10.17;;
10110;SDS011;5095;49.796;9.934;2023-06-22T01:33:11;10.17;;;8.73;;
10110;SDS011;5095;49.796;9.934;2023-06-22T01:35:38;12.33;;;9.83;;
10110;SDS011;5095;49.796;9.934;2023-06-22T01:38:04;12.73;;;9.77;;
10110;SDS011;5095;49.796;9.934;2023-06-22T01:40:31;11.60;;;10.00;;
10110;SDS011;5095;49.796;9.934;2023-06-22T01:42:59;12.17;;;9.90;;
10110;SDS011;5095;49.796;9.934;2023-06-22T01:45:26;14.17;;;9.70;;
10110;SDS011;5095;49.796;9.934;2023-06-22T01:47:53;13.10;;;10.23;;
10110;SDS011;5095;49.796;9.934;2023-06-22T01:50:20;11.47;;;9.23;;
10110;SDS011;5095;49.796;9.934;2023-06-22T01:52:46;11.33;;;8.37;;
10110;SDS011;5095;49.796;9.934;2023-06-22T01:55:12;9.07;;;7.33;;
10110;SDS011;5095;49.796;9.934;2023-06-22T01:57:39;9.43;;;8.07;;
10110;SDS011;5095;49.796;9.934;2023-06-22T02:00:07;11.10;;;8.30;;
10110;SDS011;5095;49.796;9.934;2023-06-22T02:02:54;10.67;;;7.90;;
10110;SDS011;5095;49.796;9.934;2023-06-22T02:05:21;10.07;;;8.20;;
10110;SDS011;5095;49.796;9.934;2023-06-22T02:08:10;10.90;;;8.77;;
10110;SDS011;5095;49.796;9.934;2023-06-22T02:10:35;12.23;;;8.83;;
10110;SDS011;5095;49.796;9.934;2023-06-22T02:13:04;13.97;;;8.90;;
10110;SDS011;5095;49.796;9.934;2023-06-22T02:15:30;14.10;;;8.90;;
10110;SDS011;5095;49.796;9.934;2023-06-22T02:17:57;13.77;;;9.20;;
10110;SDS011;5095;49.796;9.934;2023-06-22T02:20:23;13.23;;;9.27;;
10110;SDS011;5095;49.796;9.934;2023-06-22T02:22:50;14.70;;;9.60;;
10110;SDS011;5095;49.796;9.934;2023-06-22T02:25:16;13.07;;;8.57;;
10110;SDS011;5095;49.796;9.934;2023-06-22T02:27:42;12.30;;;9.03;;
10110;SDS011;5095;49.796;9.934;2023-06-22T02:30:08;12.60;;;9.10;;
10110;SDS011;5095;49.796;9.934;2023-06-22T02:32:34;13.63;;;9.53;;
10110;SDS011;5095;49.796;9.934;2023-06-22T02:35:01;10.47;;;9.17;;
10110;SDS011;5095;49.796;9.934;2023-06-22T02:37:31;7.23;;;5.70;;
10110;SDS011;5095;49.796;9.934;2023-06-22T02:39:57;7.37;;;5.23;;
10110;SDS011;5095;49.796;9.934;2023-06-22T02:42:23;8.20;;;5.40;;
10110;SDS011;5095;49.796;9.934;2023-06-22T02:44:49;8.20;;;7.27;;
10110;SDS011;5095;49.796;9.934;2023-06-22T02:47:15;9.10;;;7.77;;
10110;SDS011;5095;49.796;9.934;2023-06-22T02:49:41;8.93;;;6.93;;
10110;SDS011;5095;49.796;9.934;2023-06-22T02:52:09;9.23;;;8.20;;
10110;SDS011;5095;49.796;9.934;2023-06-22T02:54:35;13.13;;;9.33;;
10110;SDS011;5095;49.796;9.934;2023-06-22T02:57:01;11.43;;;8.50;;
10110;SDS011;5095;49.796;9.934;2023-06-22T02:59:28;13.57;;;9.33;;
10110;SDS011;5095;49.796;9.934;2023-06-22T03:01:54;13.20;;;9.30;;
10110;SDS011;5095;49.796;9.934;2023-06-22T03:04:20;11.00;;;7.90;;
10110;SDS011;5095;49.796;9.934;2023-06-22T03:06:46;10.47;;;9.37;;
10110;SDS011;5095;49.796;9.934;2023-06-22T03:09:16;11.40;;;9.50;;
10110;SDS011;5095;49.796;9.934;2023-06-22T03:11:42;12.10;;;9.07;;
10110;SDS011;5095;49.796;9.934;2023-06-22T03:14:08;15.10;;;10.10;;
10110;SDS011;5095;49.796;9.934;2023-06-22T03:16:34;12.03;;;9.80;;
10110;SDS011;5095;49.796;9.934;2023-06-22T03:19:01;12.27;;;10.20;;
10110;SDS011;5095;49.796;9.934;2023-06-22T03:21:28;14.33;;;10.33;;
10110;SDS011;5095;49.796;9.934;2023-06-22T03:23:54;11.17;;;10.03;;
10110;SDS011;5095;49.796;9.934;2023-06-22T03:26:20;11.47;;;10.23;;
10110;SDS011;5095;49.796;9.934;2023-06-22T03:28:46;13.70;;;10.50;;
10110;SDS011;5095;49.796;9.934;2023-06-22T03:31:12;12.27;;;10.90;;
10110;SDS011;5095;49.796;9.934;2023-06-22T03:33:38;13.07;;;10.93;;
10110;SDS011;5095;49.796;9.934;2023-06-22T03:36:04;12.60;;;11.13;;
10110;SDS011;5095;49.796;9.934;2023-06-22T03:38:32;12.43;;;10.90;;
10110;SDS011;5095;49.796;9.934;2023-06-22T03:40:58;14.03;;;11.17;;
10110;SDS011;5095;49.796;9.934;2023-06-22T03:43:24;14.93;;;11.37;;
10110;SDS011;5095;49.796;9.934;2023-06-22T03:45:50;17.67;;;11.53;;
10110;SDS011;5095;49.796;9.934;2023-06-22T03:48:16;12.57;;;11.17;;
10110;SDS011;5095;49.796;9.934;2023-06-22T03:50:42;12.63;;;10.97;;
10110;SDS011;5095;49.796;9.934;2023-06-22T03:53:09;14.80;;;11.40;;
10110;SDS011;5095;49.796;9.934;2023-06-22T03:55:35;14.10;;;11.13;;
10110;SDS011;5095;49.796;9.934;2023-06-22T03:58:02;16.97;;;11.87;;
10110;SDS011;5095;49.796;9.934;2023-06-22T04:00:30;15.03;;;11.57;;
10110;SDS011;5095;49.796;9.934;2023-06-22T04:02:57;12.63;;;11.07;;
10110;SDS011;5095;49.796;9.934;2023-06-22T04:05:23;13.87;;;11.07;;
10110;SDS011;5095;49.796;9.934;2023-06-22T04:07:49;15.13;;;11.77;;
10110;SDS011;5095;49.796;9.934;2023-06-22T04:10:15;13.07;;;11.50;;
10110;SDS011;5095;49.796;9.934;2023-06-22T04:12:41;15.90;;;11.47;;
10110;SDS011;5095;49.796;9.934;2023-06-22T04:15:07;14.40;;;11.93;;
10110;SDS011;5095;49.796;9.934;2023-06-22T04:17:33;14.47;;;11.53;;
10110;SDS011;5095;49.796;9.934;2023-06-22T04:19:59;14.03;;;12.27;;
10110;SDS011;5095;49.796;9.934;2023-06-22T04:22:25;13.43;;;11.90;;
10110;SDS011;5095;49.796;9.934;2023-06-22T04:24:51;13.03;;;11.63;;
10110;SDS011;5095;49.796;9.934;2023-06-22T04:27:18;13.63;;;12.17;;
10110;SDS011;5095;49.796;9.934;2023-06-22T04:29:44;12.90;;;11.50;;
10110;SDS011;5095;49.796;9.934;2023-06-22T04:32:14;13.97;;;12.47;;
10110;SDS011;5095;49.796;9.934;2023-06-22T04:34:40;13.43;;;11.73;;
10110;SDS011;5095;49.796;9.934;2023-06-22T04:37:06;12.90;;;11.30;;
10110;SDS011;5095;49.796;9.934;2023-06-22T04:39:32;13.53;;;11.53;;
10110;SDS011;5095;49.796;9.934;2023-06-22T04:41:58;14.23;;;12.20;;
10110;SDS011;5095;49.796;9.934;2023-06-22T04:44:25;14.80;;;12.27;;
10110;SDS011;5095;49.796;9.934;2023-06-22T04:46:58;14.20;;;11.67;;
10110;SDS011;5095;49.796;9.934;2023-06-22T04:49:29;13.50;;;10.83;;
10110;SDS011;5095;49.796;9.934;2023-06-22T04:52:02;12.83;;;11.43;;
10110;SDS011;5095;49.796;9.934;2023-06-22T04:54:28;13.70;;;11.50;;
10110;SDS011;5095;49.796;9.934;2023-06-22T04:56:57;13.77;;;11.13;;
10110;SDS011;5095;49.796;9.934;2023-06-22T04:59:24;14.57;;;11.80;;
10110;SDS011;5095;49.796;9.934;2023-06-22T05:01:58;12.57;;;11.20;;
10110;SDS011;5095;49.796;9.934;2023-06-22T05:04:25;12.93;;;11.53;;
10110;SDS011;5095;49.796;9.934;2023-06-22T05:06:52;13.37;;;11.77;;
10110;SDS011;5095;49.796;9.934;2023-06-22T05:09:18;13.70;;;11.17;;
10110;SDS011;5095;49.796;9.934;2023-06-22T05:11:44;13.83;;;11.33;;
10110;SDS011;5095;49.796;9.934;2023-06-22T05:14:10;15.63;;;10.93;;
10110;SDS011;5095;49.796;9.934;2023-06-22T05:16:37;12.23;;;10.93;;
10110;SDS011;5095;49.796;9.934;2023-06-22T05:19:03;14.07;;;11.13;;
10110;SDS011;5095;49.796;9.934;2023-06-22T05:21:29;13.03;;;11.10;;
10110;SDS011;5095;49.796;9.934;2023-06-22T05:23:56;14.23;;;11.20;;
10110;SDS011;5095;49.796;9.934;2023-06-22T05:26:25;14.07;;;11.23;;
10110;SDS011;5095;49.796;9.934;2023-06-22T05:28:52;14.40;;;11.07;;
10110;SDS011;5095;49.796;9.934;2023-06-22T05:31:18;14.23;;;10.32;;
10110;SDS011;5095;49.796;9.934;2023-06-22T05:33:45;13.00;;;11.13;;
10110;SDS011;5095;49.796;9.934;2023-06-22T05:36:11;12.50;;;10.67;;
10110;SDS011;5095;49.796;9.934;2023-06-22T05:38:37;13.73;;;11.07;;
10110;SDS011;5095;49.796;9.934;2023-06-22T05:41:04;13.80;;;10.20;;
10110;SDS011;5095;49.796;9.934;2023-06-22T05:43:30;12.23;;;10.07;;
10110;SDS011;5095;49.796;9.934;2023-06-22T05:45:56;12.63;;;10.30;;
10110;SDS011;5095;49.796;9.934;2023-06-22T05:48:23;11.87;;;10.23;;
10110;SDS011;5095;49.796;9.934;2023-06-22T05:50:49;13.13;;;10.27;;
10110;SDS011;5095;49.796;9.934;2023-06-22T05:53:15;13.53;;;10.03;;
10110;SDS011;5095;49.796;9.934;2023-06-22T05:55:41;12.10;;;10.07;;
10110;SDS011;5095;49.796;9.934;2023-06-22T05:58:07;13.27;;;10.88;;
10110;SDS011;5095;49.796;9.934;2023-06-22T06:00:34;12.77;;;10.20;;
10110;SDS011;5095;49.796;9.934;2023-06-22T06:03:00;11.60;;;9.15;;
10110;SDS011;5095;49.796;9.934;2023-06-22T06:05:29;12.10;;;9.80;;
10110;SDS011;5095;49.796;9.934;2023-06-22T06:07:55;11.68;;;9.55;;
10110;SDS011;5095;49.796;9.934;2023-06-22T06:10:21;11.13;;;9.20;;
10110;SDS011;5095;49.796;9.934;2023-06-22T06:12:47;11.65;;;10.23;;
10110;SDS011;5095;49.796;9.934;2023-06-22T06:15:14;12.95;;;10.18;;
10110;SDS011;5095;49.796;9.934;2023-06-22T06:17:49;13.15;;;10.75;;
10110;SDS011;5095;49.796;9.934;2023-06-22T06:20:17;12.68;;;10.18;;
10110;SDS011;5095;49.796;9.934;2023-06-22T06:22:43;11.40;;;10.10;;
10110;SDS011;5095;49.796;9.934;2023-06-22T06:25:10;11.45;;;9.10;;
10110;SDS011;5095;49.796;9.934;2023-06-22T06:27:43;12.63;;;9.43;;
10110;SDS011;5095;49.796;9.934;2023-06-22T06:30:10;11.50;;;9.43;;
10110;SDS011;5095;49.796;9.934;2023-06-22T06:32:36;13.18;;;10.00;;
10110;SDS011;5095;49.796;9.934;2023-06-22T06:35:03;13.13;;;10.25;;
10110;SDS011;5095;49.796;9.934;2023-06-22T06:37:29;10.75;;;9.20;;
10110;SDS011;5095;49.796;9.934;2023-06-22T06:39:55;13.65;;;9.18;;
10110;SDS011;5095;49.796;9.934;2023-06-22T06:42:21;11.88;;;9.55;;
10110;SDS011;5095;49.796;9.934;2023-06-22T06:44:49;12.38;;;9.52;;
10110;SDS011;5095;49.796;9.934;2023-06-22T06:47:15;13.25;;;9.00;;
10110;SDS011;5095;49.796;9.934;2023-06-22T06:49:42;11.23;;;8.75;;
10110;SDS011;5095;49.796;9.934;2023-06-22T06:52:08;11.05;;;9.30;;
10110;SDS011;5095;49.796;9.934;2023-06-22T06:54:34;10.15;;;8.88;;
10110;SDS011;5095;49.796;9.934;2023-06-22T06:57:00;12.00;;;9.07;;
10110;SDS011;5095;49.796;9.934;2023-06-22T06:59:28;15.88;;;9.18;;
10110;SDS011;5095;49.796;9.934;2023-06-22T07:01:55;9.07;;;6.15;;
10110;SDS011;5095;49.796;9.934;2023-06-22T07:04:21;8.43;;;7.53;;
10110;SDS011;5095;49.796;9.934;2023-06-22T07:06:47;11.02;;;7.80;;
10110;SDS011;5095;49.796;9.934;2023-06-22T07:09:13;10.30;;;7.35;;
10110;SDS011;5095;49.796;9.934;2023-06-22T07:11:39;9.30;;;7.75;;
10110;SDS011;5095;49.796;9.934;2023-06-22T07:14:05;8.98;;;7.35;;
10110;SDS011;5095;49.796;9.934;2023-06-22T07:16:31;11.98;;;8.30;;
10110;SDS011;5095;49.796;9.934;2023-06-22T07:18:57;10.20;;;7.35;;
10110;SDS011;5095;49.796;9.934;2023-06-22T07:21:23;13.65;;;8.82;;
10110;SDS011;5095;49.796;9.934;2023-06-22T07:23:50;9.10;;;7.50;;
10110;SDS011;5095;49.796;9.934;2023-06-22T07:26:16;11.85;;;8.27;;
10110;SDS011;5095;49.796;9.934;2023-06-22T07:28:42;10.98;;;8.45;;
10110;SDS011;5095;49.796;9.934;2023-06-22T07:31:08;10.85;;;7.22;;
10110;SDS011;5095;49.796;9.934;2023-06-22T07:33:34;11.38;;;8.38;;
10110;SDS011;5095;49.796;9.934;2023-06-22T07:36:00;9.65;;;8.50;;
10110;SDS011;5095;49.796;9.934;2023-06-22T07:38:28;11.02;;;8.35;;
10110;SDS011;5095;49.796;9.934;2023-06-22T07:40:54;8.68;;;7.05;;
10110;SDS011;5095;49.796;9.934;2023-06-22T07:43:20;7.57;;;5.85;;
10110;SDS011;5095;49.796;9.934;2023-06-22T07:45:49;9.70;;;7.50;;
10110;SDS011;5095;49.796;9.934;2023-06-22T07:48:17;8.48;;;7.15;;
10110;SDS011;5095;49.796;9.934;2023-06-22T07:50:43;6.18;;;4.88;;
10110;SDS011;5095;49.796;9.934;2023-06-22T07:53:09;9.93;;;7.43;;
10110;SDS011;5095;49.796;9.934;2023-06-22T07:55:35;8.63;;;6.70;;
10110;SDS011;5095;49.796;9.934;2023-06-22T07:58:01;8.63;;;7.25;;
10110;SDS011;5095;49.796;9.934;2023-06-22T08:00:27;9.32;;;8.35;;
10110;SDS011;5095;49.796;9.934;2023-06-22T08:02:53;9.30;;;7.35;;
10110;SDS011;5095;49.796;9.934;2023-06-22T08:05:19;11.43;;;7.35;;
10110;SDS011;5095;49.796;9.934;2023-06-22T08:07:45;8.40;;;6.43;;
10110;SDS011;5095;49.796;9.934;2023-06-22T08:10:12;9.32;;;6.85;;
10110;SDS011;5095;49.796;9.934;2023-06-22T08:12:41;8.65;;;6.07;;
10110;SDS011;5095;49.796;9.934;2023-06-22T08:15:07;7.78;;;6.30;;
10110;SDS011;5095;49.796;9.934;2023-06-22T08:17:34;8.65;;;6.70;;
10110;SDS011;5095;49.796;9.934;2023-06-22T08:20:00;14.50;;;7.25;;
10110;SDS011;5095;49.796;9.934;2023-06-22T08:22:26;8.88;;;7.55;;
10110;SDS011;5095;49.796;9.934;2023-06-22T08:24:52;10.85;;;7.40;;
10110;SDS011;5095;49.796;9.934;2023-06-22T08:27:18;7.90;;;7.10;;
10110;SDS011;5095;49.796;9.934;2023-06-22T08:29:46;9.45;;;7.32;;
10110;SDS011;5095;49.796;9.934;2023-06-22T08:32:12;7.05;;;5.72;;
10110;SDS011;5095;49.796;9.934;2023-06-22T08:34:38;9.93;;;7.72;;
10110;SDS011;5095;49.796;9.934;2023-06-22T08:37:07;9.23;;;7.07;;
10110;SDS011;5095;49.796;9.934;2023-06-22T08:39:33;4.95;;;4.32;;
10110;SDS011;5095;49.796;9.934;2023-06-22T08:42:00;7.25;;;4.95;;
10110;SDS011;5095;49.796;9.934;2023-06-22T08:44:26;8.38;;;7.43;;
10110;SDS011;5095;49.796;9.934;2023-06-22T08:46:52;12.07;;;7.00;;
10110;SDS011;5095;49.796;9.934;2023-06-22T08:49:18;5.35;;;4.47;;
10110;SDS011;5095;49.796;9.934;2023-06-22T08:51:44;7.35;;;5.72;;
10110;SDS011;5095;49.796;9.934;2023-06-22T08:54:12;5.90;;;4.30;;
10110;SDS011;5095;49.796;9.934;2023-06-22T08:56:38;7.20;;;5.03;;
10110;SDS011;5095;49.796;9.934;2023-06-22T08:59:04;7.28;;;5.13;;
10110;SDS011;5095;49.796;9.934;2023-06-22T09:01:32;5.95;;;4.68;;
10110;SDS011;5095;49.796;9.934;2023-06-22T09:03:58;6.80;;;4.90;;
10110;SDS011;5095;49.796;9.934;2023-06-22T09:06:25;6.00;;;4.18;;
10110;SDS011;5095;49.796;9.934;2023-06-22T09:08:51;7.85;;;5.50;;
10110;SDS011;5095;49.796;9.934;2023-06-22T09:11:17;9.10;;;5.60;;
10110;SDS011;5095;49.796;9.934;2023-06-22T09:13:43;7.88;;;5.30;;
10110;SDS011;5095;49.796;9.934;2023-06-22T09:16:09;8.98;;;5.75;;
10110;SDS011;5095;49.796;9.934;2023-06-22T09:18:36;10.88;;;5.05;;
10110;SDS011;5095;49.796;9.934;2023-06-22T09:21:02;7.25;;;4.90;;
10110;SDS011;5095;49.796;9.934;2023-06-22T09:23:28;6.18;;;4.65;;
10110;SDS011;5095;49.796;9.934;2023-06-22T09:25:55;7.90;;;5.45;;
10110;SDS011;5095;49.796;9.934;2023-06-22T09:28:21;6.18;;;4.40;;
10110;SDS011;5095;49.796;9.934;2023-06-22T09:30:47;8.52;;;5.30;;
10110;SDS011;5095;49.796;9.934;2023-06-22T09:33:13;10.75;;;5.32;;
10110;SDS011;5095;49.796;9.934;2023-06-22T09:35:39;6.72;;;4.57;;
10110;SDS011;5095;49.796;9.934;2023-06-22T09:38:05;6.35;;;5.15;;
10110;SDS011;5095;49.796;9.934;2023-06-22T09:40:31;7.47;;;5.07;;
10110;SDS011;5095;49.796;9.934;2023-06-22T09:43:00;6.13;;;4.80;;
10110;SDS011;5095;49.796;9.934;2023-06-22T09:45:26;6.25;;;4.68;;
10110;SDS011;5095;49.796;9.934;2023-06-22T09:47:52;7.53;;;4.78;;
10110;SDS011;5095;49.796;9.934;2023-06-22T09:50:18;11.63;;;8.30;;
10110;SDS011;5095;49.796;9.934;2023-06-22T09:52:44;7.32;;;5.38;;
10110;SDS011;5095;49.796;9.934;2023-06-22T09:55:15;8.15;;;5.13;;
10110;SDS011;5095;49.796;9.934;2023-06-22T09:57:41;7.63;;;5.85;;
10110;SDS011;5095;49.796;9.934;2023-06-22T10:00:07;7.65;;;5.13;;
10110;SDS011;5095;49.796;9.934;2023-06-22T10:02:34;7.70;;;5.45;;
10110;SDS011;5095;49.796;9.934;2023-06-22T10:05:00;6.72;;;4.60;;
10110;SDS011;5095;49.796;9.934;2023-06-22T10:07:26;7.53;;;5.47;;
10110;SDS011;5095;49.796;9.934;2023-06-22T10:09:52;10.48;;;4.90;;
10110;SDS011;5095;49.796;9.934;2023-06-22T10:12:18;7.88;;;4.65;;
10110;SDS011;5095;49.796;9.934;2023-06-22T10:14:44;7.60;;;4.10;;
10110;SDS011;5095;49.796;9.934;2023-06-22T10:17:10;7.93;;;5.10;;
10110;SDS011;5095;49.796;9.934;2023-06-22T10:19:36;6.55;;;4.35;;
10110;SDS011;5095;49.796;9.934;2023-06-22T10:22:04;5.47;;;4.40;;
10110;SDS011;5095;49.796;9.934;2023-06-22T10:24:30;6.07;;;4.53;;
10110;SDS011;5095;49.796;9.934;2023-06-22T10:26:59;5.95;;;4.60;;
10110;SDS011;5095;49.796;9.934;2023-06-22T10:29:25;5.22;;;4.20;;
10110;SDS011;5095;49.796;9.934;2023-06-22T10:31:51;6.88;;;4.60;;
10110;SDS011;5095;49.796;9.934;2023-06-22T10:34:17;6.32;;;4.22;;
10110;SDS011;5095;49.796;9.934;2023-06-22T10:36:43;6.18;;;3.95;;
10110;SDS011;5095;49.796;9.934;2023-06-22T10:39:13;4.88;;;4.20;;
10110;SDS011;5095;49.796;9.934;2023-06-22T10:41:40;8.15;;;4.65;;
10110;SDS011;5095;49.796;9.934;2023-06-22T10:44:06;6.80;;;4.28;;
10110;SDS011;5095;49.796;9.934;2023-06-22T10:46:32;12.68;;;5.35;;
10110;SDS011;5095;49.796;9.934;2023-06-22T10:48:58;9.48;;;4.40;;
10110;SDS011;5095;49.796;9.934;2023-06-22T10:51:24;7.28;;;4.28;;
10110;SDS011;5095;49.796;9.934;2023-06-22T10:53:51;7.35;;;4.28;;
10110;SDS011;5095;49.796;9.934;2023-06-22T10:56:17;5.95;;;4.32;;
10110;SDS011;5095;49.796;9.934;2023-06-22T10:58:44;8.05;;;4.22;;
10110;SDS011;5095;49.796;9.934;2023-06-22T11:01:10;6.07;;;4.20;;
10110;SDS011;5095;49.796;9.934;2023-06-22T11:03:36;5.38;;;3.92;;
10110;SDS011;5095;49.796;9.934;2023-06-22T11:06:02;7.53;;;4.93;;
10110;SDS011;5095;49.796;9.934;2023-06-22T11:08:28;6.88;;;4.28;;
10110;SDS011;5095;49.796;9.934;2023-06-22T11:10:55;5.90;;;3.70;;
10110;SDS011;5095;49.796;9.934;2023-06-22T11:13:21;6.43;;;3.92;;
10110;SDS011;5095;49.796;9.934;2023-06-22T11:15:47;4.43;;;3.58;;
10110;SDS011;5095;49.796;9.934;2023-06-22T11:18:13;5.13;;;3.90;;
10110;SDS011;5095;49.796;9.934;2023-06-22T11:20:39;5.85;;;4.20;;
10110;SDS011;5095;49.796;9.934;2023-06-22T11:23:05;6.60;;;4.60;;
10110;SDS011;5095;49.796;9.934;2023-06-22T11:25:32;7.43;;;4.18;;
10110;SDS011;5095;49.796;9.934;2023-06-22T11:28:00;5.97;;;3.85;;
10110;SDS011;5095;49.796;9.934;2023-06-22T11:30:26;10.45;;;3.85;;
10110;SDS011;5095;49.796;9.934;2023-06-22T11:32:52;6.72;;;4.13;;
10110;SDS011;5095;49.796;9.934;2023-06-22T11:35:18;4.93;;;3.90;;
10110;SDS011;5095;49.796;9.934;2023-06-22T11:37:44;5.30;;;4.05;;
10110;SDS011;5095;49.796;9.934;2023-06-22T11:40:10;6.60;;;4.20;;
10110;SDS011;5095;49.796;9.934;2023-06-22T11:42:36;6.25;;;4.18;;
10110;SDS011;5095;49.796;9.934;2023-06-22T11:45:04;5.35;;;4.03;;
10110;SDS011;5095;49.796;9.934;2023-06-22T11:47:30;4.60;;;3.55;;
10110;SDS011;5095;49.796;9.934;2023-06-22T11:49:56;5.65;;;4.25;;
10110;SDS011;5095;49.796;9.934;2023-06-22T11:52:23;4.85;;;3.97;;
10110;SDS011;5095;49.796;9.934;2023-06-22T11:54:49;8.35;;;3.92;;
10110;SDS011;5095;49.796;9.934;2023-06-22T11:57:15;5.50;;;3.90;;
10110;SDS011;5095;49.796;9.934;2023-06-22T11:59:41;5.45;;;3.80;;
10110;SDS011;5095;49.796;9.934;2023-06-22T12:02:07;3.97;;;3.40;;
10110;SDS011;5095;49.796;9.934;2023-06-22T12:04:34;4.65;;;3.80;;
10110;SDS011;5095;49.796;9.934;2023-06-22T12:07:00;10.68;;;4.22;;
10110;SDS011;5095;49.796;9.934;2023-06-22T12:09:27;6.45;;;4.10;;
10110;SDS011;5095;49.796;9.934;2023-06-22T12:11:53;5.40;;;4.00;;
10110;SDS011;5095;49.796;9.934;2023-06-22T12:14:19;7.68;;;4.10;;
10110;SDS011;5095;49.796;9.934;2023-06-22T12:16:45;5.53;;;3.50;;
10110;SDS011;5095;49.796;9.934;2023-06-22T12:19:12;5.10;;;3.35;;
10110;SDS011;5095;49.796;9.934;2023-06-22T12:21:38;4.50;;;3.50;;
10110;SDS011;5095;49.796;9.934;2023-06-22T12:24:05;7.10;;;3.78;;
10110;SDS011;5095;49.796;9.934;2023-06-22T12:26:31;5.82;;;3.83;;
10110;SDS011;5095;49.796;9.934;2023-06-22T12:28:57;4.85;;;3.63;;
10110;SDS011;5095;49.796;9.934;2023-06-22T12:31:23;9.65;;;4.07;;
10110;SDS011;5095;49.796;9.934;2023-06-22T12:33:50;10.20;;;4.45;;
10110;SDS011;5095;49.796;9.934;2023-06-22T12:36:16;11.27;;;4.47;;
10110;SDS011;5095;49.796;9.934;2023-06-22T12:38:42;6.15;;;3.50;;
10110;SDS011;5095;49.796;9.934;2023-06-22T12:41:08;4.60;;;3.60;;
10110;SDS011;5095;49.796;9.934;2023-06-22T12:43:34;9.27;;;4.10;;
10110;SDS011;5095;49.796;9.934;2023-06-22T12:46:00;4.93;;;3.55;;
10110;SDS011;5095;49.796;9.934;2023-06-22T12:48:26;4.22;;;3.22;;
10110;SDS011;5095;49.796;9.934;2023-06-22T12:50:53;6.35;;;3.72;;
10110;SDS011;5095;49.796;9.934;2023-06-22T12:53:19;8.00;;;4.05;;
10110;SDS011;5095;49.796;9.934;2023-06-22T12:55:47;6.07;;;3.50;;
10110;SDS011;5095;49.796;9.934;2023-06-22T12:58:13;5.47;;;3.50;;
10110;SDS011;5095;49.796;9.934;2023-06-22T13:00:39;7.80;;;3.90;;
10110;SDS011;5095;49.796;9.934;2023-06-22T13:03:05;6.95;;;3.85;;
10110;SDS011;5095;49.796;9.934;2023-06-22T13:05:31;4.88;;;3.55;;
10110;SDS011;5095;49.796;9.934;2023-06-22T13:07:59;7.65;;;3.67;;
10110;SDS011;5095;49.796;9.934;2023-06-22T13:10:25;7.60;;;4.03;;
10110;SDS011;5095;49.796;9.934;2023-06-22T13:12:51;7.22;;;3.92;;
10110;SDS011;5095;49.796;9.934;2023-06-22T13:15:25;7.78;;;4.05;;
10110;SDS011;5095;49.796;9.934;2023-06-22T13:17:51;5.57;;;3.40;;
10110;SDS011;5095;49.796;9.934;2023-06-22T13:20:17;5.57;;;3.53;;
10110;SDS011;5095;49.796;9.934;2023-06-22T13:22:43;6.82;;;3.95;;
10110;SDS011;5095;49.796;9.934;2023-06-22T13:25:09;7.30;;;3.50;;
10110;SDS011;5095;49.796;9.934;2023-06-22T13:27:38;7.15;;;4.00;;
10110;SDS011;5095;49.796;9.934;2023-06-22T13:30:04;5.82;;;3.58;;
10110;SDS011;5095;49.796;9.934;2023-06-22T13:32:30;7.50;;;3.38;;
10110;SDS011;5095;49.796;9.934;2023-06-22T13:34:56;23.17;;;18.48;;
10110;SDS011;5095;49.796;9.934;2023-06-22T13:37:22;10.13;;;6.00;;
10110;SDS011;5095;49.796;9.934;2023-06-22T13:39:48;8.35;;;5.15;;
10110;SDS011;5095;49.796;9.934;2023-06-22T13:42:14;5.47;;;3.83;;
10110;SDS011;5095;49.796;9.934;2023-06-22T13:44:40;11.00;;;4.10;;
10110;SDS011;5095;49.796;9.934;2023-06-22T13:47:07;7.82;;;3.72;;
10110;SDS011;5095;49.796;9.934;2023-06-22T13:49:33;5.68;;;3.65;;
10110;SDS011;5095;49.796;9.934;2023-06-22T13:51:59;7.30;;;4.20;;
10110;SDS011;5095;49.796;9.934;2023-06-22T13:54:25;7.97;;;3.45;;
10110;SDS011;5095;49.796;9.934;2023-06-22T13:56:51;4.60;;;3.05;;
10110;SDS011;5095;49.796;9.934;2023-06-22T13:59:17;7.75;;;3.70;;
10110;SDS011;5095;49.796;9.934;2023-06-22T14:01:44;7.70;;;3.50;;
10110;SDS011;5095;49.796;9.934;2023-06-22T14:04:10;12.23;;;4.28;;
10110;SDS011;5095;49.796;9.934;2023-06-22T14:06:37;9.90;;;3.78;;
10110;SDS011;5095;49.796;9.934;2023-06-22T14:09:04;9.07;;;3.95;;
10110;SDS011;5095;49.796;9.934;2023-06-22T14:11:30;6.47;;;3.75;;
10110;SDS011;5095;49.796;9.934;2023-06-22T14:13:56;11.52;;;4.40;;
10110;SDS011;5095;49.796;9.934;2023-06-22T14:16:22;6.68;;;4.07;;
10110;SDS011;5095;49.796;9.934;2023-06-22T14:18:48;6.22;;;3.55;;
10110;SDS011;5095;49.796;9.934;2023-06-22T14:21:14;8.98;;;4.30;;
10110;SDS011;5095;49.796;9.934;2023-06-22T14:23:40;6.60;;;4.05;;
10110;SDS011;5095;49.796;9.934;2023-06-22T14:26:06;8.85;;;6.18;;
10110;SDS011;5095;49.796;9.934;2023-06-22T14:28:32;4.72;;;3.45;;
10110;SDS011;5095;49.796;9.934;2023-06-22T14:30:58;9.55;;;3.60;;
10110;SDS011;5095;49.796;9.934;2023-06-22T14:33:24;7.07;;;4.47;;
10110;SDS011;5095;49.796;9.934;2023-06-22T14:35:50;9.30;;;4.40;;
10110;SDS011;5095;49.796;9.934;2023-06-22T14:38:16;5.43;;;3.65;;
10110;SDS011;5095;49.796;9.934;2023-06-22T14:40:42;4.72;;;3.30;;
10110;SDS011;5095;49.796;9.934;2023-06-22T14:43:08;6.00;;;3.38;;
10110;SDS011;5095;49.796;9.934;2023-06-22T14:45:34;9.18;;;5.95;;
10110;SDS011;5095;49.796;9.934;2023-06-22T14:48:00;10.80;;;3.92;;
10110;SDS011;5095;49.796;9.934;2023-06-22T14:50:26;5.75;;;3.58;;
10110;SDS011;5095;49.796;9.934;2023-06-22T14:52:52;7.38;;;3.80;;
10110;SDS011;5095;49.796;9.934;2023-06-22T14:55:19;7.32;;;4.00;;
10110;SDS011;5095;49.796;9.934;2023-06-22T14:57:45;8.77;;;4.00;;
10110;SDS011;5095;49.796;9.934;2023-06-22T15:00:12;13.95;;;6.75;;